sensor_id;sensor_type;location;lat;lon;timestamp;P1;durP1;ratioP1;P2;durP2;ratioP2
69081;SDS011;56184;51.986;5.760;2023-03-03T00:01:15;21.63;;;11.57;;
69081;SDS011;56184;51.986;5.760;2023-03-03T00:03:41;20.60;;;11.00;;
69081;SDS011;56184;51.986;5.760;2023-03-03T00:06:16;18.27;;;10.00;;
69081;SDS011;56184;51.986;5.760;2023-03-03T00:08:42;19.80;;;10.88;;
69081;SDS011;56184;51.986;5.760;2023-03-03T00:11:08;20.30;;;10.95;;
69081;SDS011;56184;51.986;5.760;2023-03-03T00:13:51;23.55;;;11.38;;
69081;SDS011;56184;51.986;5.760;2023-03-03T00:18:56;18.40;;;10.45;;
69081;SDS011;56184;51.986;5.760;2023-03-03T00:21:23;19.02;;;11.43;;
69081;SDS011;56184;51.986;5.760;2023-03-03T00:24:30;24.88;;;11.13;;
69081;SDS011;56184;51.986;5.760;2023-03-03T00:26:52;18.58;;;10.38;;
69081;SDS011;56184;51.986;5.760;2023-03-03T00:32:14;19.15;;;9.93;;
69081;SDS011;56184;51.986;5.760;2023-03-03T00:34:45;19.10;;;10.00;;
69081;SDS011;56184;51.986;5.760;2023-03-03T00:37:30;22.02;;;11.30;;
69081;SDS011;56184;51.986;5.760;2023-03-03T00:42:51;20.10;;;11.00;;
69081;SDS011;56184;51.986;5.760;2023-03-03T00:45:32;23.23;;;11.63;;
69081;SDS011;56184;51.986;5.760;2023-03-03T00:48:24;22.38;;;11.48;;
69081;SDS011;56184;51.986;5.760;2023-03-03T00:51:07;23.90;;;11.52;;
69081;SDS011;56184;51.986;5.760;2023-03-03T00:53:53;22.20;;;11.45;;
69081;SDS011;56184;51.986;5.760;2023-03-03T00:56:19;23.83;;;12.32;;
69081;SDS011;56184;51.986;5.760;2023-03-03T00:58:45;23.27;;;12.18;;
69081;SDS011;56184;51.986;5.760;2023-03-03T01:01:12;23.77;;;11.90;;
69081;SDS011;56184;51.986;5.760;2023-03-03T01:03:39;21.65;;;10.85;;
69081;SDS011;56184;51.986;5.760;2023-03-03T01:06:05;26.23;;;13.50;;
69081;SDS011;56184;51.986;5.760;2023-03-03T01:08:31;20.77;;;10.40;;
69081;SDS011;56184;51.986;5.760;2023-03-03T01:10:57;25.52;;;12.02;;
69081;SDS011;56184;51.986;5.760;2023-03-03T01:13:31;26.83;;;12.88;;
69081;SDS011;56184;51.986;5.760;2023-03-03T01:15:59;26.33;;;12.82;;
69081;SDS011;56184;51.986;5.760;2023-03-03T01:18:26;27.05;;;13.38;;
69081;SDS011;56184;51.986;5.760;2023-03-03T01:20:52;28.42;;;13.65;;
69081;SDS011;56184;51.986;5.760;2023-03-03T01:23:17;25.08;;;12.50;;
69081;SDS011;56184;51.986;5.760;2023-03-03T01:25:43;26.00;;;12.88;;
69081;SDS011;56184;51.986;5.760;2023-03-03T01:28:09;24.30;;;12.18;;
69081;SDS011;56184;51.986;5.760;2023-03-03T01:30:35;28.15;;;12.95;;
69081;SDS011;56184;51.986;5.760;2023-03-03T01:33:00;23.48;;;12.15;;
69081;SDS011;56184;51.986;5.760;2023-03-03T01:35:26;25.75;;;12.88;;
69081;SDS011;56184;51.986;5.760;2023-03-03T01:37:53;24.77;;;11.63;;
69081;SDS011;56184;51.986;5.760;2023-03-03T01:40:21;23.25;;;11.40;;
69081;SDS011;56184;51.986;5.760;2023-03-03T01:42:48;21.85;;;11.73;;
69081;SDS011;56184;51.986;5.760;2023-03-03T01:45:16;19.90;;;11.13;;
69081;SDS011;56184;51.986;5.760;2023-03-03T01:47:45;22.00;;;10.88;;
69081;SDS011;56184;51.986;5.760;2023-03-03T01:53:11;21.45;;;10.73;;
69081;SDS011;56184;51.986;5.760;2023-03-03T01:55:41;17.90;;;10.30;;
69081;SDS011;56184;51.986;5.760;2023-03-03T02:00:39;20.20;;;10.25;;
69081;SDS011;56184;51.986;5.760;2023-03-03T02:03:08;19.95;;;9.80;;
69081;SDS011;56184;51.986;5.760;2023-03-03T02:05:34;19.48;;;10.40;;
69081;SDS011;56184;51.986;5.760;2023-03-03T02:08:01;18.08;;;10.10;;
69081;SDS011;56184;51.986;5.760;2023-03-03T02:10:27;19.63;;;10.25;;
69081;SDS011;56184;51.986;5.760;2023-03-03T02:12:54;23.65;;;10.20;;
69081;SDS011;56184;51.986;5.760;2023-03-03T02:15:31;19.27;;;10.30;;
69081;SDS011;56184;51.986;5.760;2023-03-03T02:18:19;18.20;;;10.05;;
69081;SDS011;56184;51.986;5.760;2023-03-03T02:20:49;20.33;;;10.13;;
69081;SDS011;56184;51.986;5.760;2023-03-03T02:23:29;21.83;;;9.80;;
69081;SDS011;56184;51.986;5.760;2023-03-03T02:28:23;20.77;;;10.32;;
69081;SDS011;56184;51.986;5.760;2023-03-03T02:30:53;18.27;;;9.65;;
69081;SDS011;56184;51.986;5.760;2023-03-03T02:33:20;21.98;;;11.02;;
69081;SDS011;56184;51.986;5.760;2023-03-03T02:35:46;22.05;;;10.45;;
69081;SDS011;56184;51.986;5.760;2023-03-03T02:38:17;21.85;;;10.23;;
69081;SDS011;56184;51.986;5.760;2023-03-03T02:43:55;19.55;;;9.40;;
69081;SDS011;56184;51.986;5.760;2023-03-03T02:46:25;23.55;;;10.60;;
69081;SDS011;56184;51.986;5.760;2023-03-03T02:48:52;19.02;;;9.98;;
69081;SDS011;56184;51.986;5.760;2023-03-03T02:51:17;22.23;;;10.50;;
69081;SDS011;56184;51.986;5.760;2023-03-03T02:53:43;21.73;;;10.90;;
69081;SDS011;56184;51.986;5.760;2023-03-03T02:56:08;21.90;;;10.82;;
69081;SDS011;56184;51.986;5.760;2023-03-03T02:58:35;20.77;;;10.80;;
69081;SDS011;56184;51.986;5.760;2023-03-03T03:01:01;20.08;;;10.65;;
69081;SDS011;56184;51.986;5.760;2023-03-03T03:03:27;22.45;;;10.73;;
69081;SDS011;56184;51.986;5.760;2023-03-03T03:05:53;23.80;;;11.80;;
69081;SDS011;56184;51.986;5.760;2023-03-03T03:08:18;23.60;;;12.10;;
69081;SDS011;56184;51.986;5.760;2023-03-03T03:10:44;23.98;;;11.35;;
69081;SDS011;56184;51.986;5.760;2023-03-03T03:13:10;24.65;;;12.52;;
69081;SDS011;56184;51.986;5.760;2023-03-03T03:15:36;24.73;;;11.85;;
69081;SDS011;56184;51.986;5.760;2023-03-03T03:18:01;24.05;;;11.70;;
69081;SDS011;56184;51.986;5.760;2023-03-03T03:20:27;22.20;;;11.55;;
69081;SDS011;56184;51.986;5.760;2023-03-03T03:22:53;27.42;;;11.57;;
69081;SDS011;56184;51.986;5.760;2023-03-03T03:25:19;21.83;;;10.73;;
69081;SDS011;56184;51.986;5.760;2023-03-03T03:27:44;20.85;;;10.40;;
69081;SDS011;56184;51.986;5.760;2023-03-03T03:30:10;19.75;;;9.65;;
69081;SDS011;56184;51.986;5.760;2023-03-03T03:32:36;19.52;;;9.68;;
69081;SDS011;56184;51.986;5.760;2023-03-03T03:35:02;18.85;;;9.82;;
69081;SDS011;56184;51.986;5.760;2023-03-03T03:37:28;19.02;;;10.55;;
69081;SDS011;56184;51.986;5.760;2023-03-03T03:39:54;19.83;;;10.45;;
69081;SDS011;56184;51.986;5.760;2023-03-03T03:42:20;24.60;;;10.50;;
69081;SDS011;56184;51.986;5.760;2023-03-03T03:44:45;21.88;;;10.55;;
69081;SDS011;56184;51.986;5.760;2023-03-03T03:47:11;21.73;;;10.15;;
69081;SDS011;56184;51.986;5.760;2023-03-03T03:49:37;23.38;;;10.60;;
69081;SDS011;56184;51.986;5.760;2023-03-03T03:52:02;23.65;;;11.77;;
69081;SDS011;56184;51.986;5.760;2023-03-03T03:54:28;22.98;;;10.93;;
69081;SDS011;56184;51.986;5.760;2023-03-03T03:56:54;21.42;;;10.30;;
69081;SDS011;56184;51.986;5.760;2023-03-03T03:59:19;23.58;;;11.02;;
69081;SDS011;56184;51.986;5.760;2023-03-03T04:01:45;19.58;;;10.48;;
69081;SDS011;56184;51.986;5.760;2023-03-03T04:04:12;20.55;;;10.65;;
69081;SDS011;56184;51.986;5.760;2023-03-03T04:06:38;24.30;;;11.75;;
69081;SDS011;56184;51.986;5.760;2023-03-03T04:09:03;22.70;;;10.75;;
69081;SDS011;56184;51.986;5.760;2023-03-03T04:11:29;22.75;;;10.25;;
69081;SDS011;56184;51.986;5.760;2023-03-03T04:13:55;18.67;;;10.40;;
69081;SDS011;56184;51.986;5.760;2023-03-03T04:16:20;21.00;;;10.68;;
69081;SDS011;56184;51.986;5.760;2023-03-03T04:18:46;24.00;;;10.45;;
69081;SDS011;56184;51.986;5.760;2023-03-03T04:21:12;26.15;;;12.30;;
69081;SDS011;56184;51.986;5.760;2023-03-03T04:23:39;25.00;;;11.50;;
69081;SDS011;56184;51.986;5.760;2023-03-03T04:26:04;27.52;;;11.68;;
69081;SDS011;56184;51.986;5.760;2023-03-03T04:28:30;31.23;;;12.40;;
69081;SDS011;56184;51.986;5.760;2023-03-03T04:30:55;25.17;;;12.07;;
69081;SDS011;56184;51.986;5.760;2023-03-03T04:33:21;25.25;;;12.27;;
69081;SDS011;56184;51.986;5.760;2023-03-03T04:35:47;25.83;;;12.60;;
69081;SDS011;56184;51.986;5.760;2023-03-03T04:38:14;26.00;;;12.30;;
69081;SDS011;56184;51.986;5.760;2023-03-03T04:40:40;27.73;;;13.48;;
69081;SDS011;56184;51.986;5.760;2023-03-03T04:43:06;26.70;;;13.07;;
69081;SDS011;56184;51.986;5.760;2023-03-03T04:45:32;28.30;;;12.95;;
69081;SDS011;56184;51.986;5.760;2023-03-03T04:47:58;26.15;;;12.32;;
69081;SDS011;56184;51.986;5.760;2023-03-03T04:50:24;28.67;;;13.18;;
69081;SDS011;56184;51.986;5.760;2023-03-03T04:52:49;25.58;;;12.60;;
69081;SDS011;56184;51.986;5.760;2023-03-03T04:55:15;27.88;;;12.90;;
69081;SDS011;56184;51.986;5.760;2023-03-03T04:57:41;25.75;;;12.68;;
69081;SDS011;56184;51.986;5.760;2023-03-03T05:00:07;25.95;;;12.00;;
69081;SDS011;56184;51.986;5.760;2023-03-03T05:02:37;26.67;;;12.27;;
69081;SDS011;56184;51.986;5.760;2023-03-03T05:05:03;23.98;;;11.43;;
69081;SDS011;56184;51.986;5.760;2023-03-03T05:07:29;28.55;;;11.95;;
69081;SDS011;56184;51.986;5.760;2023-03-03T05:09:55;28.23;;;12.13;;
69081;SDS011;56184;51.986;5.760;2023-03-03T05:12:20;31.27;;;12.13;;
69081;SDS011;56184;51.986;5.760;2023-03-03T05:14:46;24.73;;;10.85;;
69081;SDS011;56184;51.986;5.760;2023-03-03T05:17:11;25.73;;;10.30;;
69081;SDS011;56184;51.986;5.760;2023-03-03T05:19:37;24.48;;;10.68;;
69081;SDS011;56184;51.986;5.760;2023-03-03T05:22:02;24.23;;;10.63;;
69081;SDS011;56184;51.986;5.760;2023-03-03T05:24:28;21.95;;;9.98;;
69081;SDS011;56184;51.986;5.760;2023-03-03T05:26:54;22.17;;;10.55;;
69081;SDS011;56184;51.986;5.760;2023-03-03T05:29:20;22.17;;;10.02;;
69081;SDS011;56184;51.986;5.760;2023-03-03T05:31:45;21.90;;;10.55;;
69081;SDS011;56184;51.986;5.760;2023-03-03T05:34:11;23.55;;;10.95;;
69081;SDS011;56184;51.986;5.760;2023-03-03T05:36:36;24.65;;;11.27;;
69081;SDS011;56184;51.986;5.760;2023-03-03T05:39:02;24.85;;;11.45;;
69081;SDS011;56184;51.986;5.760;2023-03-03T05:41:28;27.23;;;11.98;;
69081;SDS011;56184;51.986;5.760;2023-03-03T05:43:53;22.70;;;10.30;;
69081;SDS011;56184;51.986;5.760;2023-03-03T05:46:19;25.08;;;11.18;;
69081;SDS011;56184;51.986;5.760;2023-03-03T05:48:44;24.23;;;11.02;;
69081;SDS011;56184;51.986;5.760;2023-03-03T05:51:10;26.55;;;11.18;;
69081;SDS011;56184;51.986;5.760;2023-03-03T05:53:36;21.65;;;10.32;;
69081;SDS011;56184;51.986;5.760;2023-03-03T05:56:01;23.33;;;11.05;;
69081;SDS011;56184;51.986;5.760;2023-03-03T05:58:27;21.70;;;10.13;;
69081;SDS011;56184;51.986;5.760;2023-03-03T06:00:53;25.15;;;10.52;;
69081;SDS011;56184;51.986;5.760;2023-03-03T06:03:19;25.38;;;11.13;;
69081;SDS011;56184;51.986;5.760;2023-03-03T06:05:44;25.27;;;10.40;;
69081;SDS011;56184;51.986;5.760;2023-03-03T06:08:10;17.77;;;9.98;;
69081;SDS011;56184;51.986;5.760;2023-03-03T06:10:35;24.35;;;11.35;;
69081;SDS011;56184;51.986;5.760;2023-03-03T06:13:01;17.83;;;8.73;;
69081;SDS011;56184;51.986;5.760;2023-03-03T06:15:27;20.40;;;9.25;;
69081;SDS011;56184;51.986;5.760;2023-03-03T06:17:52;19.17;;;9.07;;
69081;SDS011;56184;51.986;5.760;2023-03-03T06:20:18;16.67;;;8.35;;
69081;SDS011;56184;51.986;5.760;2023-03-03T06:22:44;18.90;;;8.02;;
69081;SDS011;56184;51.986;5.760;2023-03-03T06:25:09;15.95;;;7.38;;
69081;SDS011;56184;51.986;5.760;2023-03-03T06:27:35;12.05;;;6.55;;
69081;SDS011;56184;51.986;5.760;2023-03-03T06:30:01;18.60;;;7.53;;
69081;SDS011;56184;51.986;5.760;2023-03-03T06:32:27;15.30;;;7.05;;
69081;SDS011;56184;51.986;5.760;2023-03-03T06:34:53;17.63;;;7.72;;
69081;SDS011;56184;51.986;5.760;2023-03-03T06:37:18;15.73;;;7.85;;
69081;SDS011;56184;51.986;5.760;2023-03-03T06:39:44;17.60;;;8.13;;
69081;SDS011;56184;51.986;5.760;2023-03-03T06:42:10;17.95;;;8.10;;
69081;SDS011;56184;51.986;5.760;2023-03-03T06:44:35;17.88;;;8.27;;
69081;SDS011;56184;51.986;5.760;2023-03-03T06:47:01;17.70;;;8.55;;
69081;SDS011;56184;51.986;5.760;2023-03-03T06:49:27;20.27;;;8.43;;
69081;SDS011;56184;51.986;5.760;2023-03-03T06:51:53;17.40;;;8.38;;
69081;SDS011;56184;51.986;5.760;2023-03-03T06:54:23;19.00;;;9.27;;
69081;SDS011;56184;51.986;5.760;2023-03-03T06:56:53;16.40;;;7.22;;
69081;SDS011;56184;51.986;5.760;2023-03-03T06:59:26;19.13;;;8.05;;
69081;SDS011;56184;51.986;5.760;2023-03-03T07:01:52;17.38;;;7.75;;
69081;SDS011;56184;51.986;5.760;2023-03-03T07:06:56;20.38;;;8.95;;
69081;SDS011;56184;51.986;5.760;2023-03-03T07:09:24;14.50;;;7.95;;
69081;SDS011;56184;51.986;5.760;2023-03-03T07:12:01;14.73;;;7.28;;
69081;SDS011;56184;51.986;5.760;2023-03-03T07:14:34;14.65;;;6.65;;
69081;SDS011;56184;51.986;5.760;2023-03-03T07:17:09;13.10;;;6.25;;
69081;SDS011;56184;51.986;5.760;2023-03-03T07:19:43;16.67;;;6.57;;
69081;SDS011;56184;51.986;5.760;2023-03-03T07:24:39;12.15;;;5.80;;
69081;SDS011;56184;51.986;5.760;2023-03-03T07:27:22;13.35;;;6.20;;
69081;SDS011;56184;51.986;5.760;2023-03-03T07:29:50;10.90;;;5.30;;
69081;SDS011;56184;51.986;5.760;2023-03-03T07:32:21;11.32;;;5.95;;
69081;SDS011;56184;51.986;5.760;2023-03-03T07:35:12;12.30;;;6.03;;
69081;SDS011;56184;51.986;5.760;2023-03-03T07:38:15;13.05;;;6.20;;
69081;SDS011;56184;51.986;5.760;2023-03-03T07:40:49;11.88;;;5.93;;
69081;SDS011;56184;51.986;5.760;2023-03-03T07:43:26;12.45;;;5.90;;
69081;SDS011;56184;51.986;5.760;2023-03-03T07:52:01;11.95;;;5.43;;
69081;SDS011;56184;51.986;5.760;2023-03-03T07:54:44;13.38;;;5.88;;
69081;SDS011;56184;51.986;5.760;2023-03-03T07:57:14;12.55;;;5.70;;
69081;SDS011;56184;51.986;5.760;2023-03-03T07:59:51;13.35;;;6.10;;
69081;SDS011;56184;51.986;5.760;2023-03-03T08:02:32;16.55;;;6.18;;
69081;SDS011;56184;51.986;5.760;2023-03-03T08:05:17;11.68;;;6.03;;
69081;SDS011;56184;51.986;5.760;2023-03-03T08:07:45;10.15;;;5.15;;
69081;SDS011;56184;51.986;5.760;2023-03-03T08:10:28;9.02;;;5.10;;
69081;SDS011;56184;51.986;5.760;2023-03-03T08:13:16;9.00;;;4.75;;
69081;SDS011;56184;51.986;5.760;2023-03-03T08:18:42;8.27;;;4.53;;
69081;SDS011;56184;51.986;5.760;2023-03-03T08:21:15;11.13;;;5.82;;
69081;SDS011;56184;51.986;5.760;2023-03-03T08:23:41;12.13;;;5.82;;
69081;SDS011;56184;51.986;5.760;2023-03-03T08:26:07;9.52;;;5.05;;
69081;SDS011;56184;51.986;5.760;2023-03-03T08:28:33;11.30;;;5.03;;
69081;SDS011;56184;51.986;5.760;2023-03-03T08:30:59;12.13;;;5.03;;
69081;SDS011;56184;51.986;5.760;2023-03-03T08:33:24;11.15;;;5.18;;
69081;SDS011;56184;51.986;5.760;2023-03-03T08:35:50;9.90;;;5.05;;
69081;SDS011;56184;51.986;5.760;2023-03-03T08:38:17;9.95;;;5.05;;
69081;SDS011;56184;51.986;5.760;2023-03-03T08:40:44;8.05;;;4.65;;
69081;SDS011;56184;51.986;5.760;2023-03-03T08:43:10;8.90;;;4.30;;
69081;SDS011;56184;51.986;5.760;2023-03-03T08:45:44;9.02;;;4.65;;
69081;SDS011;56184;51.986;5.760;2023-03-03T08:48:11;7.70;;;4.22;;
69081;SDS011;56184;51.986;5.760;2023-03-03T08:50:37;8.98;;;4.72;;
69081;SDS011;56184;51.986;5.760;2023-03-03T08:53:04;7.82;;;4.15;;
69081;SDS011;56184;51.986;5.760;2023-03-03T08:55:30;7.95;;;3.92;;
69081;SDS011;56184;51.986;5.760;2023-03-03T08:57:56;9.50;;;4.70;;
69081;SDS011;56184;51.986;5.760;2023-03-03T09:00:22;10.15;;;4.50;;
69081;SDS011;56184;51.986;5.760;2023-03-03T09:02:48;10.60;;;4.20;;
69081;SDS011;56184;51.986;5.760;2023-03-03T09:05:15;9.93;;;4.70;;
69081;SDS011;56184;51.986;5.760;2023-03-03T09:07:42;10.40;;;5.20;;
69081;SDS011;56184;51.986;5.760;2023-03-03T09:10:09;9.10;;;4.43;;
69081;SDS011;56184;51.986;5.760;2023-03-03T09:12:41;8.30;;;4.18;;
69081;SDS011;56184;51.986;5.760;2023-03-03T09:15:27;8.45;;;4.30;;
69081;SDS011;56184;51.986;5.760;2023-03-03T09:18:04;8.23;;;4.22;;
69081;SDS011;56184;51.986;5.760;2023-03-03T09:20:43;9.50;;;4.05;;
69081;SDS011;56184;51.986;5.760;2023-03-03T09:34:11;8.63;;;3.60;;
69081;SDS011;56184;51.986;5.760;2023-03-03T09:36:42;7.50;;;3.33;;
69081;SDS011;56184;51.986;5.760;2023-03-03T09:39:26;8.00;;;4.20;;
69081;SDS011;56184;51.986;5.760;2023-03-03T09:41:58;6.28;;;3.70;;
69081;SDS011;56184;51.986;5.760;2023-03-03T09:50:27;9.73;;;3.47;;
69081;SDS011;56184;51.986;5.760;2023-03-03T10:09:57;7.00;;;3.40;;
69081;SDS011;56184;51.986;5.760;2023-03-03T10:12:44;5.97;;;2.67;;
69081;SDS011;56184;51.986;5.760;2023-03-03T10:15:24;5.00;;;3.08;;
69081;SDS011;56184;51.986;5.760;2023-03-03T10:18:16;3.78;;;1.92;;
69081;SDS011;56184;51.986;5.760;2023-03-03T10:21:09;5.50;;;2.70;;
69081;SDS011;56184;51.986;5.760;2023-03-03T10:24:10;3.20;;;1.52;;
69081;SDS011;56184;51.986;5.760;2023-03-03T10:26:59;3.90;;;2.22;;
69081;SDS011;56184;51.986;5.760;2023-03-03T10:29:49;2.55;;;1.80;;
69081;SDS011;56184;51.986;5.760;2023-03-03T10:38:03;4.43;;;2.80;;
69081;SDS011;56184;51.986;5.760;2023-03-03T10:40:39;5.97;;;2.78;;
69081;SDS011;56184;51.986;5.760;2023-03-03T10:43:44;1.85;;;1.63;;
69081;SDS011;56184;51.986;5.760;2023-03-03T10:46:27;4.07;;;2.45;;
69081;SDS011;56184;51.986;5.760;2023-03-03T10:49:04;5.40;;;2.95;;
69081;SDS011;56184;51.986;5.760;2023-03-03T10:54:49;4.90;;;1.42;;
69081;SDS011;56184;51.986;5.760;2023-03-03T11:00:48;5.28;;;2.78;;
69081;SDS011;56184;51.986;5.760;2023-03-03T11:14:11;3.65;;;2.25;;
69081;SDS011;56184;51.986;5.760;2023-03-03T11:17:04;3.95;;;2.45;;
69081;SDS011;56184;51.986;5.760;2023-03-03T11:20:07;3.25;;;1.98;;
69081;SDS011;56184;51.986;5.760;2023-03-03T11:22:59;4.35;;;2.15;;
69081;SDS011;56184;51.986;5.760;2023-03-03T11:25:52;3.47;;;2.30;;
69081;SDS011;56184;51.986;5.760;2023-03-03T11:31:15;2.83;;;1.90;;
69081;SDS011;56184;51.986;5.760;2023-03-03T11:36:36;3.55;;;2.13;;
69081;SDS011;56184;51.986;5.760;2023-03-03T11:39:23;1.77;;;1.60;;
69081;SDS011;56184;51.986;5.760;2023-03-03T11:44:44;2.22;;;1.80;;
69081;SDS011;56184;51.986;5.760;2023-03-03T11:47:18;2.97;;;1.90;;
69081;SDS011;56184;51.986;5.760;2023-03-03T11:52:54;4.90;;;2.00;;
69081;SDS011;56184;51.986;5.760;2023-03-03T11:55:41;3.75;;;1.88;;
69081;SDS011;56184;51.986;5.760;2023-03-03T11:58:17;4.32;;;2.13;;
69081;SDS011;56184;51.986;5.760;2023-03-03T12:11:38;3.38;;;1.85;;
69081;SDS011;56184;51.986;5.760;2023-03-03T12:25:08;2.30;;;1.60;;
69081;SDS011;56184;51.986;5.760;2023-03-03T12:27:53;3.83;;;1.50;;
69081;SDS011;56184;51.986;5.760;2023-03-03T12:33:22;2.28;;;1.38;;
69081;SDS011;56184;51.986;5.760;2023-03-03T12:39:14;3.22;;;1.55;;
69081;SDS011;56184;51.986;5.760;2023-03-03T12:41:58;8.50;;;2.40;;
69081;SDS011;56184;51.986;5.760;2023-03-03T12:47:21;2.05;;;1.70;;
69081;SDS011;56184;51.986;5.760;2023-03-03T12:50:02;1.48;;;1.38;;
69081;SDS011;56184;51.986;5.760;2023-03-03T12:55:31;2.73;;;1.70;;
69081;SDS011;56184;51.986;5.760;2023-03-03T12:58:11;2.40;;;1.90;;
69081;SDS011;56184;51.986;5.760;2023-03-03T13:01:06;3.88;;;2.38;;
69081;SDS011;56184;51.986;5.760;2023-03-03T13:12:02;8.52;;;4.75;;
69081;SDS011;56184;51.986;5.760;2023-03-03T13:14:47;3.17;;;2.38;;
69081;SDS011;56184;51.986;5.760;2023-03-03T13:31:39;7.28;;;4.25;;
69081;SDS011;56184;51.986;5.760;2023-03-03T13:34:16;5.10;;;3.45;;
69081;SDS011;56184;51.986;5.760;2023-03-03T13:37:03;7.57;;;3.60;;
69081;SDS011;56184;51.986;5.760;2023-03-03T13:39:38;3.30;;;2.45;;
69081;SDS011;56184;51.986;5.760;2023-03-03T13:42:22;4.88;;;2.70;;
69081;SDS011;56184;51.986;5.760;2023-03-03T13:45:06;4.00;;;2.60;;
69081;SDS011;56184;51.986;5.760;2023-03-03T13:47:47;4.93;;;2.70;;
69081;SDS011;56184;51.986;5.760;2023-03-03T13:50:47;5.20;;;2.50;;
69081;SDS011;56184;51.986;5.760;2023-03-03T13:59:30;5.28;;;1.80;;
69081;SDS011;56184;51.986;5.760;2023-03-03T14:01:56;2.47;;;1.63;;
69081;SDS011;56184;51.986;5.760;2023-03-03T14:04:31;3.33;;;1.90;;
69081;SDS011;56184;51.986;5.760;2023-03-03T14:07:11;2.60;;;1.83;;
69081;SDS011;56184;51.986;5.760;2023-03-03T14:15:29;4.20;;;1.65;;
69081;SDS011;56184;51.986;5.760;2023-03-03T14:18:02;2.47;;;1.40;;
69081;SDS011;56184;51.986;5.760;2023-03-03T14:20:52;5.35;;;1.70;;
69081;SDS011;56184;51.986;5.760;2023-03-03T14:26:06;3.67;;;1.42;;
69081;SDS011;56184;51.986;5.760;2023-03-03T14:28:38;3.03;;;1.35;;
69081;SDS011;56184;51.986;5.760;2023-03-03T14:31:13;2.13;;;1.13;;
69081;SDS011;56184;51.986;5.760;2023-03-03T14:36:37;2.72;;;1.10;;
69081;SDS011;56184;51.986;5.760;2023-03-03T14:41:59;1.80;;;1.17;;
69081;SDS011;56184;51.986;5.760;2023-03-03T14:49:36;2.13;;;1.25;;
69081;SDS011;56184;51.986;5.760;2023-03-03T14:54:45;3.25;;;1.65;;
69081;SDS011;56184;51.986;5.760;2023-03-03T15:02:33;2.28;;;1.15;;
69081;SDS011;56184;51.986;5.760;2023-03-03T15:07:51;1.75;;;0.98;;
69081;SDS011;56184;51.986;5.760;2023-03-03T15:15:59;3.28;;;1.27;;
69081;SDS011;56184;51.986;5.760;2023-03-03T15:18:28;2.35;;;1.20;;
69081;SDS011;56184;51.986;5.760;2023-03-03T15:24:06;3.03;;;1.40;;
69081;SDS011;56184;51.986;5.760;2023-03-03T15:32:43;4.65;;;1.20;;
69081;SDS011;56184;51.986;5.760;2023-03-03T15:35:24;4.57;;;1.38;;
69081;SDS011;56184;51.986;5.760;2023-03-03T15:38:00;4.90;;;1.08;;
69081;SDS011;56184;51.986;5.760;2023-03-03T15:40:37;2.95;;;1.20;;
69081;SDS011;56184;51.986;5.760;2023-03-03T15:46:20;2.40;;;1.20;;
69081;SDS011;56184;51.986;5.760;2023-03-03T15:52:07;3.17;;;1.13;;
69081;SDS011;56184;51.986;5.760;2023-03-03T15:57:44;3.40;;;1.80;;
69081;SDS011;56184;51.986;5.760;2023-03-03T16:03:29;3.05;;;0.98;;
69081;SDS011;56184;51.986;5.760;2023-03-03T16:06:04;2.53;;;1.30;;
69081;SDS011;56184;51.986;5.760;2023-03-03T16:17:21;3.20;;;1.67;;
69081;SDS011;56184;51.986;5.760;2023-03-03T16:29:02;5.78;;;1.48;;
69081;SDS011;56184;51.986;5.760;2023-03-03T16:31:52;2.67;;;1.60;;
69081;SDS011;56184;51.986;5.760;2023-03-03T16:34:56;5.05;;;1.45;;
69081;SDS011;56184;51.986;5.760;2023-03-03T16:42:52;1.90;;;1.33;;
69081;SDS011;56184;51.986;5.760;2023-03-03T16:45:34;1.73;;;0.88;;
69081;SDS011;56184;51.986;5.760;2023-03-03T16:56:29;5.25;;;2.63;;
69081;SDS011;56184;51.986;5.760;2023-03-03T17:10:39;3.40;;;1.67;;
69081;SDS011;56184;51.986;5.760;2023-03-03T17:21:36;6.30;;;1.13;;
69081;SDS011;56184;51.986;5.760;2023-03-03T17:27:22;2.15;;;0.80;;
69081;SDS011;56184;51.986;5.760;2023-03-03T17:30:05;9.43;;;2.40;;
69081;SDS011;56184;51.986;5.760;2023-03-03T17:43:28;4.13;;;1.17;;
69081;SDS011;56184;51.986;5.760;2023-03-03T17:46:08;2.88;;;1.02;;
69081;SDS011;56184;51.986;5.760;2023-03-03T17:49:10;6.63;;;1.35;;
69081;SDS011;56184;51.986;5.760;2023-03-03T18:21:26;6.38;;;1.20;;
69081;SDS011;56184;51.986;5.760;2023-03-03T18:26:52;9.90;;;2.55;;
69081;SDS011;56184;51.986;5.760;2023-03-03T18:29:28;7.72;;;1.73;;
69081;SDS011;56184;51.986;5.760;2023-03-03T18:34:28;9.40;;;1.90;;
69081;SDS011;56184;51.986;5.760;2023-03-03T18:45:51;9.63;;;1.80;;
69081;SDS011;56184;51.986;5.760;2023-03-03T18:47:56;9.98;;;3.25;;
69081;SDS011;56184;51.986;5.760;2023-03-03T18:50:33;19.17;;;2.97;;
69081;SDS011;56184;51.986;5.760;2023-03-03T18:53:15;5.70;;;1.45;;
69081;SDS011;56184;51.986;5.760;2023-03-03T18:55:44;12.32;;;3.13;;
69081;SDS011;56184;51.986;5.760;2023-03-03T19:03:30;14.57;;;2.45;;
69081;SDS011;56184;51.986;5.760;2023-03-03T19:06:01;13.63;;;3.53;;
69081;SDS011;56184;51.986;5.760;2023-03-03T19:16:54;11.88;;;3.58;;
69081;SDS011;56184;51.986;5.760;2023-03-03T19:19:31;15.95;;;3.45;;
69081;SDS011;56184;51.986;5.760;2023-03-03T19:22:17;19.75;;;4.45;;
69081;SDS011;56184;51.986;5.760;2023-03-03T19:25:00;13.88;;;5.32;;
69081;SDS011;56184;51.986;5.760;2023-03-03T19:27:31;12.30;;;2.17;;
69081;SDS011;56184;51.986;5.760;2023-03-03T19:30:10;17.55;;;2.88;;
69081;SDS011;56184;51.986;5.760;2023-03-03T19:36:09;10.88;;;1.75;;
69081;SDS011;56184;51.986;5.760;2023-03-03T19:44:43;17.55;;;3.22;;
69081;SDS011;56184;51.986;5.760;2023-03-03T19:52:57;21.58;;;6.80;;
69081;SDS011;56184;51.986;5.760;2023-03-03T19:55:51;24.38;;;5.25;;
69081;SDS011;56184;51.986;5.760;2023-03-03T20:10:27;22.85;;;4.13;;
69081;SDS011;56184;51.986;5.760;2023-03-03T20:23:59;19.95;;;5.05;;
69081;SDS011;56184;51.986;5.760;2023-03-03T20:26:53;19.27;;;3.15;;
69081;SDS011;56184;51.986;5.760;2023-03-03T20:38:14;13.48;;;2.78;;
69081;SDS011;56184;51.986;5.760;2023-03-03T20:41:26;17.48;;;3.53;;
69081;SDS011;56184;51.986;5.760;2023-03-03T21:00:40;14.73;;;3.17;;
69081;SDS011;56184;51.986;5.760;2023-03-03T21:05:53;20.15;;;2.33;;
69081;SDS011;56184;51.986;5.760;2023-03-03T21:11:04;11.02;;;1.92;;
69081;SDS011;56184;51.986;5.760;2023-03-03T21:13:36;17.60;;;2.85;;
69081;SDS011;56184;51.986;5.760;2023-03-03T21:19:01;15.88;;;2.72;;
69081;SDS011;56184;51.986;5.760;2023-03-03T21:21:33;14.23;;;2.20;;
69081;SDS011;56184;51.986;5.760;2023-03-03T21:24:04;22.43;;;2.80;;
69081;SDS011;56184;51.986;5.760;2023-03-03T21:31:45;20.52;;;2.95;;
69081;SDS011;56184;51.986;5.760;2023-03-03T21:34:31;14.23;;;2.75;;
69081;SDS011;56184;51.986;5.760;2023-03-03T21:37:08;18.83;;;2.85;;
69081;SDS011;56184;51.986;5.760;2023-03-03T21:39:39;16.45;;;2.70;;
69081;SDS011;56184;51.986;5.760;2023-03-03T21:42:08;17.80;;;3.05;;
69081;SDS011;56184;51.986;5.760;2023-03-03T21:47:04;15.52;;;3.10;;
69081;SDS011;56184;51.986;5.760;2023-03-03T21:49:31;16.85;;;3.40;;
69081;SDS011;56184;51.986;5.760;2023-03-03T21:51:57;14.57;;;2.70;;
69081;SDS011;56184;51.986;5.760;2023-03-03T21:54:23;17.67;;;2.80;;
69081;SDS011;56184;51.986;5.760;2023-03-03T21:56:49;14.20;;;3.13;;
69081;SDS011;56184;51.986;5.760;2023-03-03T21:59:15;17.67;;;3.03;;
69081;SDS011;56184;51.986;5.760;2023-03-03T22:01:41;20.98;;;3.40;;
69081;SDS011;56184;51.986;5.760;2023-03-03T22:04:07;19.60;;;3.50;;
69081;SDS011;56184;51.986;5.760;2023-03-03T22:06:33;21.02;;;3.50;;